sensor_id;sensor_type;location;lat;lon;timestamp;pressure;altitude;pressure_sealevel;temperature;humidity
45813;BME280;31519;45.408;10.962;2023-04-29T00:02:00;100610.72;;;18.86;52.87
45813;BME280;31519;45.408;10.962;2023-04-29T00:04:29;100613.72;;;19.23;51.97
45813;BME280;31519;45.408;10.962;2023-04-29T00:06:57;100615.34;;;18.66;52.90
45813;BME280;31519;45.408;10.962;2023-04-29T00:09:25;100627.13;;;18.58;53.45
45813;BME280;31519;45.408;10.962;2023-04-29T00:11:53;100632.84;;;18.37;54.58
45813;BME280;31519;45.408;10.962;2023-04-29T00:14:21;100614.19;;;18.67;53.84
45813;BME280;31519;45.408;10.962;2023-04-29T00:16:49;100590.31;;;18.88;53.33
45813;BME280;31519;45.408;10.962;2023-04-29T00:19:17;100600.25;;;19.03;52.75
45813;BME280;31519;45.408;10.962;2023-04-29T00:21:45;100601.75;;;19.01;52.83
45813;BME280;31519;45.408;10.962;2023-04-29T00:24:13;100596.44;;;18.66;53.94
45813;BME280;31519;45.408;10.962;2023-04-29T00:26:41;100597.00;;;18.75;53.73
45813;BME280;31519;45.408;10.962;2023-04-29T00:29:09;100591.44;;;19.07;53.22
45813;BME280;31519;45.408;10.962;2023-04-29T00:31:36;100586.63;;;18.96;53.14
45813;BME280;31519;45.408;10.962;2023-04-29T00:34:05;100591.03;;;19.04;53.32
45813;BME280;31519;45.408;10.962;2023-04-29T00:36:33;100600.72;;;19.28;53.13
45813;BME280;31519;45.408;10.962;2023-04-29T00:39:01;100595.84;;;19.15;52.93
45813;BME280;31519;45.408;10.962;2023-04-29T00:41:29;100598.91;;;18.94;53.80
45813;BME280;31519;45.408;10.962;2023-04-29T00:43:58;100607.34;;;19.34;52.74
45813;BME280;31519;45.408;10.962;2023-04-29T00:46:26;100608.03;;;19.28;52.77
45813;BME280;31519;45.408;10.962;2023-04-29T00:48:54;100608.31;;;19.23;53.53
45813;BME280;31519;45.408;10.962;2023-04-29T00:51:22;100613.75;;;19.03;53.66
45813;BME280;31519;45.408;10.962;2023-04-29T00:53:51;100621.34;;;19.40;52.77
45813;BME280;31519;45.408;10.962;2023-04-29T00:56:19;100612.28;;;19.06;53.30
45813;BME280;31519;45.408;10.962;2023-04-29T00:58:50;100613.53;;;19.12;53.27
45813;BME280;31519;45.408;10.962;2023-04-29T01:01:19;100610.22;;;18.99;54.05
45813;BME280;31519;45.408;10.962;2023-04-29T01:03:49;100604.19;;;19.29;52.76
45813;BME280;31519;45.408;10.962;2023-04-29T01:11:25;100605.72;;;19.30;53.10
45813;BME280;31519;45.408;10.962;2023-04-29T01:13:58;100597.03;;;19.17;53.66
45813;BME280;31519;45.408;10.962;2023-04-29T01:19:07;100586.03;;;19.07;54.13
45813;BME280;31519;45.408;10.962;2023-04-29T01:21:45;100588.03;;;19.10;54.06
45813;BME280;31519;45.408;10.962;2023-04-29T01:24:15;100594.66;;;18.93;54.76
45813;BME280;31519;45.408;10.962;2023-04-29T01:26:56;100596.66;;;18.96;54.71
45813;BME280;31519;45.408;10.962;2023-04-29T01:30:00;100591.25;;;18.96;54.84
45813;BME280;31519;45.408;10.962;2023-04-29T01:32:35;100589.22;;;19.12;54.92
45813;BME280;31519;45.408;10.962;2023-04-29T01:35:19;100597.88;;;19.21;54.65
45813;BME280;31519;45.408;10.962;2023-04-29T01:38:03;100596.72;;;18.80;55.79
45813;BME280;31519;45.408;10.962;2023-04-29T01:40:37;100593.56;;;18.97;55.07
45813;BME280;31519;45.408;10.962;2023-04-29T01:43:14;100586.97;;;18.95;55.52
45813;BME280;31519;45.408;10.962;2023-04-29T01:45:46;100586.75;;;19.03;55.39
45813;BME280;31519;45.408;10.962;2023-04-29T01:48:15;100589.88;;;19.06;55.37
45813;BME280;31519;45.408;10.962;2023-04-29T01:50:44;100580.75;;;18.91;55.70
45813;BME280;31519;45.408;10.962;2023-04-29T01:53:14;100580.81;;;19.17;55.35
45813;BME280;31519;45.408;10.962;2023-04-29T01:55:44;100573.97;;;19.00;55.33
45813;BME280;31519;45.408;10.962;2023-04-29T01:58:28;100573.03;;;19.12;55.05
45813;BME280;31519;45.408;10.962;2023-04-29T02:01:19;100570.19;;;18.82;55.65
45813;BME280;31519;45.408;10.962;2023-04-29T02:03:47;100564.78;;;18.82;55.45
45813;BME280;31519;45.408;10.962;2023-04-29T02:06:16;100563.28;;;18.85;55.76
45813;BME280;31519;45.408;10.962;2023-04-29T02:08:48;100576.06;;;18.88;55.53
45813;BME280;31519;45.408;10.962;2023-04-29T02:11:17;100579.97;;;18.90;55.34
45813;BME280;31519;45.408;10.962;2023-04-29T02:13:45;100577.31;;;18.94;55.12
45813;BME280;31519;45.408;10.962;2023-04-29T02:16:15;100581.53;;;18.91;55.57
45813;BME280;31519;45.408;10.962;2023-04-29T02:18:52;100566.91;;;18.92;55.71
45813;BME280;31519;45.408;10.962;2023-04-29T02:21:21;100565.56;;;18.83;55.80
45813;BME280;31519;45.408;10.962;2023-04-29T02:23:49;100550.75;;;18.54;56.71
45813;BME280;31519;45.408;10.962;2023-04-29T02:26:18;100553.97;;;18.82;55.98
45813;BME280;31519;45.408;10.962;2023-04-29T02:28:46;100577.31;;;18.94;55.96
45813;BME280;31519;45.408;10.962;2023-04-29T02:31:15;100586.53;;;18.93;55.86
45813;BME280;31519;45.408;10.962;2023-04-29T02:33:46;100589.13;;;18.86;55.86
45813;BME280;31519;45.408;10.962;2023-04-29T02:36:14;100581.16;;;18.93;55.66
45813;BME280;31519;45.408;10.962;2023-04-29T02:38:43;100557.53;;;18.86;55.96
45813;BME280;31519;45.408;10.962;2023-04-29T02:41:15;100562.88;;;18.64;56.38
45813;BME280;31519;45.408;10.962;2023-04-29T02:43:42;100554.03;;;18.86;55.73
45813;BME280;31519;45.408;10.962;2023-04-29T02:46:11;100547.91;;;18.89;55.95
45813;BME280;31519;45.408;10.962;2023-04-29T02:48:39;100546.53;;;18.76;56.27
45813;BME280;31519;45.408;10.962;2023-04-29T02:51:08;100541.72;;;18.88;55.95
45813;BME280;31519;45.408;10.962;2023-04-29T02:53:36;100553.41;;;19.15;55.30
45813;BME280;31519;45.408;10.962;2023-04-29T02:56:04;100562.91;;;18.86;55.38
45813;BME280;31519;45.408;10.962;2023-04-29T02:58:32;100577.59;;;18.89;55.98
45813;BME280;31519;45.408;10.962;2023-04-29T03:01:00;100582.59;;;18.87;55.85
45813;BME280;31519;45.408;10.962;2023-04-29T03:03:28;100589.28;;;18.74;56.89
45813;BME280;31519;45.408;10.962;2023-04-29T03:05:57;100592.31;;;18.91;56.13
45813;BME280;31519;45.408;10.962;2023-04-29T03:08:25;100595.00;;;19.11;55.95
45813;BME280;31519;45.408;10.962;2023-04-29T03:10:53;100592.31;;;18.91;55.95
45813;BME280;31519;45.408;10.962;2023-04-29T03:13:22;100579.34;;;18.78;56.72
45813;BME280;31519;45.408;10.962;2023-04-29T03:15:50;100574.22;;;18.73;57.13
45813;BME280;31519;45.408;10.962;2023-04-29T03:18:18;100567.13;;;19.07;56.52
45813;BME280;31519;45.408;10.962;2023-04-29T03:20:47;100567.50;;;19.28;55.78
45813;BME280;31519;45.408;10.962;2023-04-29T03:23:15;100558.63;;;19.04;56.54
45813;BME280;31519;45.408;10.962;2023-04-29T03:25:43;100559.34;;;19.24;55.72
45813;BME280;31519;45.408;10.962;2023-04-29T03:28:11;100567.47;;;19.24;55.75
45813;BME280;31519;45.408;10.962;2023-04-29T03:30:39;100567.31;;;19.40;55.32
45813;BME280;31519;45.408;10.962;2023-04-29T03:33:07;100565.81;;;18.97;56.41
45813;BME280;31519;45.408;10.962;2023-04-29T03:35:35;100574.63;;;18.94;56.92
45813;BME280;31519;45.408;10.962;2023-04-29T03:38:26;100595.53;;;18.97;57.11
45813;BME280;31519;45.408;10.962;2023-04-29T03:40:54;100592.31;;;18.91;57.90
45813;BME280;31519;45.408;10.962;2023-04-29T03:43:22;100592.69;;;18.71;58.78
45813;BME280;31519;45.408;10.962;2023-04-29T03:45:51;100581.09;;;18.70;59.08
45813;BME280;31519;45.408;10.962;2023-04-29T03:48:21;100566.03;;;18.88;58.71
45813;BME280;31519;45.408;10.962;2023-04-29T03:50:51;100569.56;;;18.70;59.71
45813;BME280;31519;45.408;10.962;2023-04-29T03:53:19;100559.78;;;18.84;59.81
45813;BME280;31519;45.408;10.962;2023-04-29T03:55:48;100555.38;;;18.95;59.46
45813;BME280;31519;45.408;10.962;2023-04-29T03:58:16;100566.13;;;19.15;58.51
45813;BME280;31519;45.408;10.962;2023-04-29T04:00:44;100558.91;;;18.99;58.77
45813;BME280;31519;45.408;10.962;2023-04-29T04:03:18;100560.16;;;18.83;59.57
45813;BME280;31519;45.408;10.962;2023-04-29T04:05:47;100569.91;;;19.10;58.85
45813;BME280;31519;45.408;10.962;2023-04-29T04:08:15;100568.44;;;18.93;59.03
45813;BME280;31519;45.408;10.962;2023-04-29T04:11:06;100560.94;;;18.83;59.46
45813;BME280;31519;45.408;10.962;2023-04-29T04:13:41;100565.34;;;18.91;59.20
45813;BME280;31519;45.408;10.962;2023-04-29T04:16:10;100570.34;;;18.93;59.00
45813;BME280;31519;45.408;10.962;2023-04-29T04:18:38;100592.91;;;18.81;59.00
45813;BME280;31519;45.408;10.962;2023-04-29T04:21:07;100589.41;;;18.81;59.36
45813;BME280;31519;45.408;10.962;2023-04-29T04:23:38;100575.41;;;18.75;59.31
45813;BME280;31519;45.408;10.962;2023-04-29T04:26:12;100573.88;;;18.74;60.15
45813;BME280;31519;45.408;10.962;2023-04-29T04:28:58;100568.78;;;18.69;60.26
45813;BME280;31519;45.408;10.962;2023-04-29T04:31:53;100572.94;;;18.28;61.90
45813;BME280;31519;45.408;10.962;2023-04-29T04:34:21;100574.47;;;18.10;63.37
45813;BME280;31519;45.408;10.962;2023-04-29T04:36:51;100573.38;;;17.80;64.96
45813;BME280;31519;45.408;10.962;2023-04-29T04:39:21;100573.50;;;17.67;65.62
45813;BME280;31519;45.408;10.962;2023-04-29T04:41:50;100572.78;;;17.55;66.60
45813;BME280;31519;45.408;10.962;2023-04-29T04:44:19;100583.66;;;17.58;67.16
45813;BME280;31519;45.408;10.962;2023-04-29T04:46:58;100601.59;;;17.23;68.86
45813;BME280;31519;45.408;10.962;2023-04-29T04:49:47;100595.34;;;17.35;69.32
45813;BME280;31519;45.408;10.962;2023-04-29T04:52:20;100585.28;;;17.32;70.03
45813;BME280;31519;45.408;10.962;2023-04-29T04:54:58;100590.44;;;16.93;71.39
45813;BME280;31519;45.408;10.962;2023-04-29T04:57:29;100586.47;;;16.75;72.18
45813;BME280;31519;45.408;10.962;2023-04-29T05:00:00;100586.66;;;16.54;73.32
45813;BME280;31519;45.408;10.962;2023-04-29T05:02:29;100567.56;;;16.87;71.75
45813;BME280;31519;45.408;10.962;2023-04-29T05:04:56;100572.16;;;16.71;72.12
45813;BME280;31519;45.408;10.962;2023-04-29T05:07:28;100579.44;;;16.70;72.01
45813;BME280;31519;45.408;10.962;2023-04-29T05:10:03;100583.84;;;16.63;72.66
45813;BME280;31519;45.408;10.962;2023-04-29T05:12:32;100587.66;;;16.90;71.44
45813;BME280;31519;45.408;10.962;2023-04-29T05:15:02;100584.47;;;16.72;72.23
45813;BME280;31519;45.408;10.962;2023-04-29T05:17:31;100597.41;;;16.82;71.30
45813;BME280;31519;45.408;10.962;2023-04-29T05:20:01;100594.78;;;16.70;71.97
45813;BME280;31519;45.408;10.962;2023-04-29T05:22:30;100591.31;;;16.97;71.34
45813;BME280;31519;45.408;10.962;2023-04-29T05:24:58;100584.91;;;17.17;70.53
45813;BME280;31519;45.408;10.962;2023-04-29T05:27:32;100586.13;;;17.04;71.21
45813;BME280;31519;45.408;10.962;2023-04-29T05:30:02;100591.00;;;17.30;70.53
45813;BME280;31519;45.408;10.962;2023-04-29T05:32:30;100584.13;;;17.17;71.19
45813;BME280;31519;45.408;10.962;2023-04-29T05:34:58;100598.41;;;17.64;68.91
45813;BME280;31519;45.408;10.962;2023-04-29T05:37:27;100596.94;;;17.67;68.09
45813;BME280;31519;45.408;10.962;2023-04-29T05:40:08;100611.34;;;17.90;67.68
45813;BME280;31519;45.408;10.962;2023-04-29T05:42:36;100595.44;;;17.85;67.46
45813;BME280;31519;45.408;10.962;2023-04-29T05:45:04;100594.56;;;17.97;67.61
45813;BME280;31519;45.408;10.962;2023-04-29T05:47:32;100598.50;;;17.37;69.71
45813;BME280;31519;45.408;10.962;2023-04-29T05:50:01;100606.41;;;17.45;69.17
45813;BME280;31519;45.408;10.962;2023-04-29T05:52:28;100608.44;;;17.05;71.20
45813;BME280;31519;45.408;10.962;2023-04-29T05:54:56;100612.63;;;17.34;70.38
45813;BME280;31519;45.408;10.962;2023-04-29T05:57:25;100597.16;;;17.15;70.17
45813;BME280;31519;45.408;10.962;2023-04-29T05:59:54;100606.91;;;17.35;69.34
45813;BME280;31519;45.408;10.962;2023-04-29T06:02:23;100617.34;;;17.52;68.07
45813;BME280;31519;45.408;10.962;2023-04-29T06:04:51;100618.91;;;16.94;70.08
45813;BME280;31519;45.408;10.962;2023-04-29T06:07:48;100631.63;;;17.25;69.72
45813;BME280;31519;45.408;10.962;2023-04-29T06:10:31;100629.44;;;17.58;68.48
45813;BME280;31519;45.408;10.962;2023-04-29T06:12:59;100626.53;;;17.36;68.26
45813;BME280;31519;45.408;10.962;2023-04-29T06:15:27;100619.94;;;17.49;68.28
45813;BME280;31519;45.408;10.962;2023-04-29T06:17:55;100628.25;;;17.12;69.53
45813;BME280;31519;45.408;10.962;2023-04-29T06:20:24;100628.06;;;17.80;67.51
45813;BME280;31519;45.408;10.962;2023-04-29T06:22:52;100632.81;;;18.02;66.14
45813;BME280;31519;45.408;10.962;2023-04-29T06:25:21;100639.69;;;18.00;65.44
45813;BME280;31519;45.408;10.962;2023-04-29T06:27:50;100640.34;;;18.28;65.41
45813;BME280;31519;45.408;10.962;2023-04-29T06:30:22;100647.06;;;18.19;64.85
45813;BME280;31519;45.408;10.962;2023-04-29T06:32:51;100647.50;;;18.40;62.62
45813;BME280;31519;45.408;10.962;2023-04-29T06:35:20;100637.69;;;17.97;63.84
45813;BME280;31519;45.408;10.962;2023-04-29T06:38:02;100630.31;;;17.94;64.27
45813;BME280;31519;45.408;10.962;2023-04-29T06:40:33;100631.25;;;17.70;63.31
45813;BME280;31519;45.408;10.962;2023-04-29T06:43:20;100634.50;;;17.76;62.93
45813;BME280;31519;45.408;10.962;2023-04-29T06:46:07;100636.88;;;18.12;61.46
45813;BME280;31519;45.408;10.962;2023-04-29T06:48:40;100637.91;;;18.42;61.13
45813;BME280;31519;45.408;10.962;2023-04-29T06:51:08;100642.25;;;18.63;60.45
45813;BME280;31519;45.408;10.962;2023-04-29T06:53:37;100645.97;;;18.74;59.38
45813;BME280;31519;45.408;10.962;2023-04-29T06:56:06;100640.56;;;18.74;60.15
45813;BME280;31519;45.408;10.962;2023-04-29T06:58:33;100630.84;;;18.69;60.01
45813;BME280;31519;45.408;10.962;2023-04-29T07:01:02;100628.94;;;19.12;58.91
45813;BME280;31519;45.408;10.962;2023-04-29T07:03:30;100619.88;;;19.42;58.48
45813;BME280;31519;45.408;10.962;2023-04-29T07:05:58;100621.78;;;19.00;59.06
45813;BME280;31519;45.408;10.962;2023-04-29T07:08:26;100624.22;;;19.28;58.44
45813;BME280;31519;45.408;10.962;2023-04-29T07:10:55;100624.38;;;19.16;58.52
45813;BME280;31519;45.408;10.962;2023-04-29T07:13:23;100633.03;;;19.44;57.74
45813;BME280;31519;45.408;10.962;2023-04-29T07:15:52;100623.09;;;19.29;57.99
45813;BME280;31519;45.408;10.962;2023-04-29T07:18:19;100627.03;;;19.35;58.18
45813;BME280;31519;45.408;10.962;2023-04-29T07:20:47;100627.81;;;19.35;56.69
45813;BME280;31519;45.408;10.962;2023-04-29T07:23:17;100616.13;;;19.47;55.30
45813;BME280;31519;45.408;10.962;2023-04-29T07:25:45;100616.91;;;19.48;54.58
45813;BME280;31519;45.408;10.962;2023-04-29T07:28:13;100618.47;;;19.29;55.45
45813;BME280;31519;45.408;10.962;2023-04-29T07:30:41;100627.00;;;19.77;53.88
45813;BME280;31519;45.408;10.962;2023-04-29T07:33:09;100628.41;;;19.93;54.05
45813;BME280;31519;45.408;10.962;2023-04-29T07:35:40;100633.28;;;19.39;54.39
45813;BME280;31519;45.408;10.962;2023-04-29T07:38:10;100628.34;;;19.22;55.09
45813;BME280;31519;45.408;10.962;2023-04-29T07:40:40;100630.13;;;19.79;54.11
45813;BME280;31519;45.408;10.962;2023-04-29T07:43:08;100630.47;;;19.51;53.27
45813;BME280;31519;45.408;10.962;2023-04-29T07:45:36;100633.81;;;19.44;54.17
45813;BME280;31519;45.408;10.962;2023-04-29T07:48:05;100631.44;;;19.88;53.96
45813;BME280;31519;45.408;10.962;2023-04-29T07:50:33;100646.06;;;19.84;54.63
45813;BME280;31519;45.408;10.962;2023-04-29T07:53:01;100649.75;;;19.76;54.49
45813;BME280;31519;45.408;10.962;2023-04-29T07:55:30;100659.63;;;20.14;53.62
45813;BME280;31519;45.408;10.962;2023-04-29T07:58:00;100660.13;;;19.70;55.12
45813;BME280;31519;45.408;10.962;2023-04-29T08:00:28;100663.63;;;19.97;53.78
45813;BME280;31519;45.408;10.962;2023-04-29T08:02:55;100670.50;;;19.68;54.43
45813;BME280;31519;45.408;10.962;2023-04-29T08:05:25;100660.19;;;19.51;54.62
45813;BME280;31519;45.408;10.962;2023-04-29T08:07:53;100665.03;;;19.65;55.99
45813;BME280;31519;45.408;10.962;2023-04-29T08:10:24;100668.94;;;19.67;56.82
45813;BME280;31519;45.408;10.962;2023-04-29T08:12:53;100667.25;;;19.59;56.98
45813;BME280;31519;45.408;10.962;2023-04-29T08:15:22;100669.84;;;19.33;56.94
45813;BME280;31519;45.408;10.962;2023-04-29T08:17:49;100660.44;;;18.85;55.61
45813;BME280;31519;45.408;10.962;2023-04-29T08:20:17;100672.59;;;18.94;56.37
45813;BME280;31519;45.408;10.962;2023-04-29T08:22:45;100670.97;;;19.51;55.61
45813;BME280;31519;45.408;10.962;2023-04-29T08:25:14;100672.84;;;20.19;53.28
45813;BME280;31519;45.408;10.962;2023-04-29T08:27:41;100676.41;;;20.00;53.34
45813;BME280;31519;45.408;10.962;2023-04-29T08:30:11;100674.41;;;19.29;56.34
45813;BME280;31519;45.408;10.962;2023-04-29T08:32:39;100685.16;;;19.67;55.37
45813;BME280;31519;45.408;10.962;2023-04-29T08:35:07;100677.59;;;19.76;54.44
45813;BME280;31519;45.408;10.962;2023-04-29T08:37:35;100680.16;;;20.41;53.95
45813;BME280;31519;45.408;10.962;2023-04-29T08:40:04;100690.38;;;20.02;50.27
45813;BME280;31519;45.408;10.962;2023-04-29T08:42:33;100684.66;;;19.84;51.69
45813;BME280;31519;45.408;10.962;2023-04-29T08:45:02;100682.31;;;20.06;52.67
45813;BME280;31519;45.408;10.962;2023-04-29T08:47:30;100682.94;;;20.22;49.62
45813;BME280;31519;45.408;10.962;2023-04-29T08:50:00;100684.78;;;20.41;49.29
45813;BME280;31519;45.408;10.962;2023-04-29T08:52:30;100685.81;;;20.06;48.78
45813;BME280;31519;45.408;10.962;2023-04-29T08:54:59;100686.88;;;20.51;48.82
45813;BME280;31519;45.408;10.962;2023-04-29T08:57:29;100684.13;;;19.98;49.43
45813;BME280;31519;45.408;10.962;2023-04-29T08:59:58;100678.88;;;20.91;47.46
45813;BME280;31519;45.408;10.962;2023-04-29T09:02:27;100692.41;;;21.21;46.81
45813;BME280;31519;45.408;10.962;2023-04-29T09:07:26;100671.03;;;21.49;43.91
45813;BME280;31519;45.408;10.962;2023-04-29T09:09:55;100672.75;;;20.64;43.27
45813;BME280;31519;45.408;10.962;2023-04-29T09:12:23;100669.28;;;21.31;42.99
45813;BME280;31519;45.408;10.962;2023-04-29T09:14:51;100671.81;;;21.94;41.75
45813;BME280;31519;45.408;10.962;2023-04-29T09:17:21;100675.03;;;22.14;41.74
45813;BME280;31519;45.408;10.962;2023-04-29T09:25:15;100664.56;;;21.64;41.93
45813;BME280;31519;45.408;10.962;2023-04-29T09:27:43;100668.13;;;20.98;42.39
45813;BME280;31519;45.408;10.962;2023-04-29T09:30:11;100659.66;;;21.37;42.49
45813;BME280;31519;45.408;10.962;2023-04-29T09:32:40;100662.66;;;22.13;41.82
45813;BME280;31519;45.408;10.962;2023-04-29T09:35:21;100659.00;;;22.56;41.05
45813;BME280;31519;45.408;10.962;2023-04-29T09:37:50;100665.88;;;23.33;39.80
45813;BME280;31519;45.408;10.962;2023-04-29T09:40:30;100656.34;;;22.67;40.58
45813;BME280;31519;45.408;10.962;2023-04-29T09:43:09;100647.31;;;21.87;42.51
45813;BME280;31519;45.408;10.962;2023-04-29T09:45:41;100648.38;;;22.26;42.70
45813;BME280;31519;45.408;10.962;2023-04-29T09:48:10;100649.63;;;22.39;42.11
45813;BME280;31519;45.408;10.962;2023-04-29T09:50:40;100644.28;;;22.53;41.51
45813;BME280;31519;45.408;10.962;2023-04-29T09:53:08;100646.47;;;22.30;41.59
45813;BME280;31519;45.408;10.962;2023-04-29T09:58:26;100645.63;;;23.02;40.48
45813;BME280;31519;45.408;10.962;2023-04-29T10:00:55;100629.44;;;22.33;41.11
45813;BME280;31519;45.408;10.962;2023-04-29T10:03:23;100631.00;;;21.83;41.79
45813;BME280;31519;45.408;10.962;2023-04-29T10:05:53;100630.19;;;22.34;40.69
45813;BME280;31519;45.408;10.962;2023-04-29T10:08:21;100634.06;;;23.40;39.75
45813;BME280;31519;45.408;10.962;2023-04-29T10:10:49;100632.16;;;23.91;38.81
45813;BME280;31519;45.408;10.962;2023-04-29T10:13:24;100637.88;;;24.49;37.85
45813;BME280;31519;45.408;10.962;2023-04-29T10:18:40;100637.16;;;23.35;39.32
45813;BME280;31519;45.408;10.962;2023-04-29T10:21:09;100627.88;;;23.68;38.78
45813;BME280;31519;45.408;10.962;2023-04-29T10:23:38;100629.44;;;23.87;39.63
45813;BME280;31519;45.408;10.962;2023-04-29T10:26:06;100628.25;;;23.92;39.62
45813;BME280;31519;45.408;10.962;2023-04-29T10:28:35;100632.47;;;23.08;41.72
45813;BME280;31519;45.408;10.962;2023-04-29T10:31:04;100630.97;;;23.92;39.50
45813;BME280;31519;45.408;10.962;2023-04-29T10:33:34;100625.16;;;23.65;39.47
45813;BME280;31519;45.408;10.962;2023-04-29T10:36:03;100621.38;;;24.81;37.82
45813;BME280;31519;45.408;10.962;2023-04-29T10:38:34;100611.50;;;25.67;35.74
45813;BME280;31519;45.408;10.962;2023-04-29T10:41:08;100615.66;;;25.34;35.47
45813;BME280;31519;45.408;10.962;2023-04-29T10:43:41;100603.78;;;25.58;34.76
45813;BME280;31519;45.408;10.962;2023-04-29T10:46:16;100601.06;;;23.84;37.13
45813;BME280;31519;45.408;10.962;2023-04-29T10:48:46;100601.44;;;23.76;38.37
45813;BME280;31519;45.408;10.962;2023-04-29T10:51:33;100596.94;;;24.63;36.95
45813;BME280;31519;45.408;10.962;2023-04-29T10:54:03;100593.88;;;25.27;36.88
45813;BME280;31519;45.408;10.962;2023-04-29T10:59:04;100590.97;;;25.52;35.52
45813;BME280;31519;45.408;10.962;2023-04-29T11:01:48;100577.63;;;26.36;34.38
45813;BME280;31519;45.408;10.962;2023-04-29T11:04:17;100596.75;;;24.08;36.96
45813;BME280;31519;45.408;10.962;2023-04-29T11:06:47;100585.53;;;23.67;38.66
45813;BME280;31519;45.408;10.962;2023-04-29T11:11:46;100583.34;;;24.60;37.78
45813;BME280;31519;45.408;10.962;2023-04-29T11:14:22;100574.69;;;26.20;35.80
45813;BME280;31519;45.408;10.962;2023-04-29T11:16:52;100564.13;;;26.56;34.95
45813;BME280;31519;45.408;10.962;2023-04-29T11:19:24;100568.22;;;26.07;35.54
45813;BME280;31519;45.408;10.962;2023-04-29T11:22:36;100571.81;;;25.59;36.42
45813;BME280;31519;45.408;10.962;2023-04-29T11:24:54;100578.75;;;26.04;35.46
45813;BME280;31519;45.408;10.962;2023-04-29T11:27:24;100584.91;;;25.27;36.94
45813;BME280;31519;45.408;10.962;2023-04-29T11:29:53;100576.41;;;24.48;37.75
45813;BME280;31519;45.408;10.962;2023-04-29T11:32:29;100583.16;;;24.99;38.63
45813;BME280;31519;45.408;10.962;2023-04-29T11:35:11;100571.97;;;26.20;36.59
45813;BME280;31519;45.408;10.962;2023-04-29T11:37:40;100571.47;;;24.18;38.73
45813;BME280;31519;45.408;10.962;2023-04-29T11:40:09;100576.50;;;24.23;39.14
45813;BME280;31519;45.408;10.962;2023-04-29T11:42:42;100574.28;;;23.62;40.97
45813;BME280;31519;45.408;10.962;2023-04-29T11:45:11;100568.03;;;23.36;41.27
45813;BME280;31519;45.408;10.962;2023-04-29T11:47:41;100571.84;;;24.20;39.86
45813;BME280;31519;45.408;10.962;2023-04-29T11:50:10;100572.31;;;23.80;40.22
45813;BME280;31519;45.408;10.962;2023-04-29T11:52:38;100570.69;;;24.07;39.89
45813;BME280;31519;45.408;10.962;2023-04-29T11:55:08;100573.88;;;24.93;39.28
45813;BME280;31519;45.408;10.962;2023-04-29T11:57:36;100571.91;;;23.81;40.63
45813;BME280;31519;45.408;10.962;2023-04-29T12:00:07;100567.97;;;24.98;38.43
45813;BME280;31519;45.408;10.962;2023-04-29T12:02:36;100575.44;;;24.83;38.99
45813;BME280;31519;45.408;10.962;2023-04-29T12:05:05;100575.69;;;24.37;39.54
45813;BME280;31519;45.408;10.962;2023-04-29T12:07:34;100573.94;;;24.71;38.56
45813;BME280;31519;45.408;10.962;2023-04-29T12:10:07;100559.59;;;25.26;37.67
45813;BME280;31519;45.408;10.962;2023-04-29T12:12:36;100561.75;;;26.27;36.74
45813;BME280;31519;45.408;10.962;2023-04-29T12:15:07;100573.31;;;25.15;38.21
45813;BME280;31519;45.408;10.962;2023-04-29T12:17:37;100572.69;;;23.75;40.19
45813;BME280;31519;45.408;10.962;2023-04-29T12:20:05;100564.09;;;24.05;40.70
45813;BME280;31519;45.408;10.962;2023-04-29T12:22:35;100566.09;;;24.84;39.49
45813;BME280;31519;45.408;10.962;2023-04-29T12:25:04;100561.16;;;25.27;38.67
45813;BME280;31519;45.408;10.962;2023-04-29T12:27:31;100555.78;;;25.16;38.82
45813;BME280;31519;45.408;10.962;2023-04-29T12:30:01;100559.50;;;23.41;42.48
45813;BME280;31519;45.408;10.962;2023-04-29T12:32:28;100566.84;;;23.91;42.07
45813;BME280;31519;45.408;10.962;2023-04-29T12:34:56;100569.34;;;24.58;41.50
45813;BME280;31519;45.408;10.962;2023-04-29T12:37:24;100556.53;;;25.69;38.66
45813;BME280;31519;45.408;10.962;2023-04-29T12:39:55;100553.44;;;24.49;40.85
45813;BME280;31519;45.408;10.962;2023-04-29T12:42:23;100549.94;;;25.18;39.57
45813;BME280;31519;45.408;10.962;2023-04-29T12:44:51;100544.69;;;25.82;38.96
45813;BME280;31519;45.408;10.962;2023-04-29T12:47:19;100537.81;;;25.67;39.12
45813;BME280;31519;45.408;10.962;2023-04-29T12:49:48;100531.22;;;26.36;37.84
45813;BME280;31519;45.408;10.962;2023-04-29T12:52:16;100535.53;;;26.64;37.59
45813;BME280;31519;45.408;10.962;2023-04-29T12:54:44;100527.91;;;25.43;39.43
45813;BME280;31519;45.408;10.962;2023-04-29T12:57:12;100523.91;;;25.54;39.04
45813;BME280;31519;45.408;10.962;2023-04-29T12:59:41;100515.06;;;26.49;37.79
45813;BME280;31519;45.408;10.962;2023-04-29T13:02:08;100515.88;;;27.49;36.62
45813;BME280;31519;45.408;10.962;2023-04-29T13:04:36;100512.78;;;24.83;40.59
45813;BME280;31519;45.408;10.962;2023-04-29T13:07:06;100507.22;;;25.86;39.66
45813;BME280;31519;45.408;10.962;2023-04-29T13:09:34;100508.97;;;24.66;41.57
45813;BME280;31519;45.408;10.962;2023-04-29T13:12:04;100499.66;;;25.64;40.24
45813;BME280;31519;45.408;10.962;2023-04-29T13:14:36;100497.91;;;25.80;39.97
45813;BME280;31519;45.408;10.962;2023-04-29T13:17:03;100501.78;;;25.01;41.85
45813;BME280;31519;45.408;10.962;2023-04-29T13:19:32;100497.06;;;25.49;40.58
45813;BME280;31519;45.408;10.962;2023-04-29T13:22:17;100491.94;;;25.14;40.84
45813;BME280;31519;45.408;10.962;2023-04-29T13:24:45;100485.72;;;26.53;39.03